Time,TemperatureF,DewpointF,PressureIn,WindDirection,WindDirectionDegrees,WindSpeedMPH,WindSpeedGustMPH,Humidity,HourlyPrecipIn,Conditions,Clouds,dailyrainin,SolarRadiationWatts/m^2,SoftwareType,DateUTC
2013-09-01 00:22:00,51.0,51.0,-100.00,NE,39,2.0,4.0,99,0.02,,,0.08,0.000000,,2013-09-01 08:22:00,
2013-09-01 00:32:00,51.0,51.0,-100.00,NE,39,2.0,4.0,99,0.02,,,0.08,0.000000,,2013-09-01 08:32:00,
2013-09-01 00:43:00,51.0,51.0,-100.00,NE,39,2.0,4.0,99,0.02,,,0.08,0.000000,,2013-09-01 08:43:00,
2013-09-01 00:52:00,51.0,51.0,-100.00,NE,39,2.0,4.0,99,0.02,,,0.08,0.000000,,2013-09-01 08:52:00,
2013-09-01 01:21:00,51.0,51.0,-100.00,ESE,105,1.0,3.0,99,0.02,,,0.10,0.000000,,2013-09-01 09:21:00,
2013-09-01 01:33:00,51.0,51.0,-100.00,ESE,105,1.0,3.0,99,0.02,,,0.10,0.000000,,2013-09-01 09:33:00,
2013-09-01 01:43:00,51.0,51.0,-100.00,ESE,105,1.0,3.0,99,0.02,,,0.10,0.000000,,2013-09-01 09:43:00,
2013-09-01 01:53:00,51.0,51.0,-100.00,ESE,105,1.0,3.0,99,0.02,,,0.10,0.000000,,2013-09-01 09:53:00,
2013-09-01 02:23:00,51.0,51.0,-100.00,ENE,77,2.0,4.0,100,0.01,,,0.11,0.000000,,2013-09-01 10:23:00,
2013-09-01 02:33:00,51.0,51.0,-100.00,ENE,77,2.0,4.0,100,0.01,,,0.11,0.000000,,2013-09-01 10:33:00,
2013-09-01 02:53:00,51.0,51.0,-100.00,ENE,77,2.0,4.0,100,0.01,,,0.11,0.000000,,2013-09-01 10:53:00,
2013-09-01 03:22:00,51.0,51.0,-100.00,ENE,78,1.0,3.0,99,0.00,,,0.11,0.000000,,2013-09-01 11:22:00,
2013-09-01 03:32:00,51.0,51.0,-100.00,ENE,78,1.0,3.0,99,0.00,,,0.11,0.000000,,2013-09-01 11:32:00,
2013-09-01 03:52:00,51.0,51.0,-100.00,ENE,78,1.0,3.0,99,0.00,,,0.11,0.000000,,2013-09-01 11:52:00,
2013-09-01 04:22:00,50.0,50.0,-100.00,East,86,0.0,2.0,100,0.00,,,-99.99,0.000000,,2013-09-01 12:22:00,
2013-09-01 04:32:00,50.0,50.0,-100.00,East,86,0.0,2.0,100,0.00,,,-99.99,0.000000,,2013-09-01 12:32:00,
2013-09-01 04:42:00,50.0,50.0,-100.00,East,86,0.0,2.0,100,0.00,,,-99.99,0.000000,,2013-09-01 12:42:00,
2013-09-01 04:51:00,50.0,50.0,-100.00,East,86,0.0,2.0,100,0.00,,,-99.99,0.000000,,2013-09-01 12:51:00,
2013-09-01 05:21:00,50.0,50.0,-100.00,ENE,68,0.0,0.0,100,0.00,,,0.11,0.000000,,2013-09-01 13:21:00,
2013-09-01 05:32:00,50.0,50.0,-100.00,ENE,68,0.0,0.0,100,0.00,,,0.11,0.000000,,2013-09-01 13:32:00,
2013-09-01 05:42:00,50.0,50.0,-100.00,ENE,68,0.0,0.0,100,0.00,,,0.11,0.000000,,2013-09-01 13:42:00,
2013-09-01 05:52:00,50.0,50.0,-100.00,ENE,68,0.0,0.0,100,0.00,,,0.11,0.000000,,2013-09-01 13:52:00,
2013-09-01 06:22:00,50.0,50.0,-100.00,ESE,104,0.0,2.0,100,0.00,,,0.11,0.000000,,2013-09-01 14:22:00,
2013-09-01 06:32:00,50.0,50.0,-100.00,ESE,104,0.0,2.0,100,0.00,,,0.11,0.000000,,2013-09-01 14:32:00,
2013-09-01 06:42:00,50.0,50.0,-100.00,ESE,104,0.0,2.0,100,0.00,,,0.11,0.000000,,2013-09-01 14:42:00,
2013-09-01 06:52:00,50.0,50.0,-100.00,ESE,104,0.0,2.0,100,0.00,,,0.11,0.000000,,2013-09-01 14:52:00,
2013-09-01 07:23:00,50.0,50.0,-100.00,ENE,74,0.0,1.0,100,0.00,,,0.11,0.000000,,2013-09-01 15:23:00,
2013-09-01 07:34:00,50.0,50.0,-100.00,ENE,74,0.0,1.0,100,0.00,,,0.11,0.000000,,2013-09-01 15:34:00,
2013-09-01 07:44:00,50.0,50.0,-100.00,ENE,74,0.0,1.0,100,0.00,,,0.11,0.000000,,2013-09-01 15:44:00,
2013-09-01 07:55:00,50.0,50.0,-100.00,ENE,74,0.0,1.0,100,0.00,,,0.11,0.000000,,2013-09-01 15:55:00,
2013-09-01 08:24:00,51.0,51.0,-100.00,West,267,1.0,1.0,100,0.00,,,0.11,22.000000,,2013-09-01 16:24:00,
2013-09-01 08:34:00,51.0,51.0,-100.00,West,267,1.0,1.0,100,0.00,,,0.11,22.000000,,2013-09-01 16:34:00,
2013-09-01 08:53:00,51.0,51.0,-100.00,West,267,1.0,1.0,100,0.00,,,0.11,22.000000,,2013-09-01 16:53:00,
2013-09-01 09:23:00,51.0,51.0,-100.00,SSE,168,0.0,0.0,100,0.00,,,0.10,40.000000,,2013-09-01 17:23:00,
2013-09-01 09:34:00,51.0,51.0,-100.00,SSE,168,0.0,0.0,100,0.00,,,0.10,40.000000,,2013-09-01 17:34:00,
2013-09-01 09:42:00,51.0,51.0,-100.00,SSE,168,0.0,0.0,100,0.00,,,0.10,40.000000,,2013-09-01 17:42:00,
2013-09-01 09:52:00,51.0,51.0,-100.00,SSE,168,0.0,0.0,100,0.00,,,0.10,40.000000,,2013-09-01 17:52:00,
2013-09-01 10:22:00,54.0,54.0,-100.00,SW,224,0.0,3.0,99,0.00,,,0.09,94.000000,,2013-09-01 18:22:00,
2013-09-01 10:32:00,54.0,54.0,-100.00,SW,224,0.0,3.0,99,0.00,,,0.09,94.000000,,2013-09-01 18:32:00,
2013-09-01 10:42:00,54.0,54.0,-100.00,SW,224,0.0,3.0,99,0.00,,,0.09,94.000000,,2013-09-01 18:42:00,
2013-09-01 10:52:00,54.0,54.0,-100.00,SW,224,0.0,3.0,99,0.00,,,0.09,94.000000,,2013-09-01 18:52:00,
2013-09-01 11:22:00,55.0,53.0,-100.00,WSW,246,1.0,3.0,93,0.00,,,0.08,103.000000,,2013-09-01 19:22:00,
2013-09-01 11:32:00,55.0,53.0,-100.00,WSW,246,1.0,3.0,93,0.00,,,0.08,103.000000,,2013-09-01 19:32:00,
2013-09-01 11:52:00,55.0,53.0,-100.00,WSW,246,1.0,3.0,93,0.00,,,0.08,103.000000,,2013-09-01 19:52:00,
2013-09-01 12:21:00,55.0,53.0,-100.00,East,91,1.0,3.0,92,0.00,,,0.08,99.000000,,2013-09-01 20:21:00,
2013-09-01 12:32:00,55.0,53.0,-100.00,East,91,1.0,3.0,92,0.00,,,0.08,99.000000,,2013-09-01 20:32:00,
2013-09-01 12:42:00,55.0,53.0,-100.00,East,91,1.0,3.0,92,0.00,,,0.08,99.000000,,2013-09-01 20:42:00,
2013-09-01 12:52:00,55.0,53.0,-100.00,East,91,1.0,3.0,92,0.00,,,0.08,99.000000,,2013-09-01 20:52:00,
2013-09-01 13:21:00,56.0,54.0,-100.00,ESE,102,2.0,4.0,92,0.00,,,0.08,113.000000,,2013-09-01 21:21:00,
2013-09-01 13:34:00,56.0,54.0,-100.00,ESE,102,2.0,4.0,92,0.00,,,0.08,113.000000,,2013-09-01 21:34:00,
2013-09-01 13:43:00,56.0,54.0,-100.00,ESE,102,2.0,4.0,92,0.00,,,0.08,113.000000,,2013-09-01 21:43:00,
2013-09-01 13:54:00,56.0,54.0,-100.00,ESE,102,2.0,4.0,92,0.00,,,0.08,113.000000,,2013-09-01 21:54:00,
2013-09-01 14:24:00,58.0,53.0,-100.00,WSW,239,2.0,3.0,83,0.00,,,0.07,206.000000,,2013-09-01 22:24:00,
2013-09-01 14:34:00,58.0,53.0,-100.00,WSW,239,2.0,3.0,83,0.00,,,0.07,206.000000,,2013-09-01 22:34:00,
2013-09-01 14:53:00,58.0,53.0,-100.00,WSW,239,2.0,3.0,83,0.00,,,0.07,206.000000,,2013-09-01 22:53:00,
2013-09-01 15:23:00,57.0,51.0,-100.00,WSW,244,2.0,3.0,81,0.00,,,0.07,144.000000,,2013-09-01 23:23:00,
2013-09-01 15:34:00,57.0,51.0,-100.00,WSW,244,2.0,3.0,81,0.00,,,0.07,144.000000,,2013-09-01 23:34:00,
2013-09-01 15:42:00,57.0,51.0,-100.00,WSW,244,2.0,3.0,81,0.00,,,0.07,144.000000,,2013-09-01 23:42:00,
2013-09-01 15:53:00,57.0,51.0,-100.00,WSW,244,2.0,3.0,81,0.00,,,0.07,144.000000,,2013-09-01 23:53:00,
2013-09-01 16:22:00,57.0,52.0,-100.00,South,179,1.0,3.0,82,0.00,,,0.07,122.000000,,2013-09-02 00:22:00,
2013-09-01 16:33:00,57.0,52.0,-100.00,South,179,1.0,3.0,82,0.00,,,0.07,122.000000,,2013-09-02 00:33:00,
2013-09-01 16:42:00,57.0,52.0,-100.00,South,179,1.0,3.0,82,0.00,,,0.07,122.000000,,2013-09-02 00:42:00,
2013-09-01 16:52:00,57.0,52.0,-100.00,South,179,1.0,3.0,82,0.00,,,0.07,122.000000,,2013-09-02 00:52:00,
2013-09-01 17:21:00,57.0,54.0,-100.00,NE,47,1.0,2.0,91,0.01,,,0.08,108.000000,,2013-09-02 01:21:00,
2013-09-01 17:32:00,57.0,54.0,-100.00,NE,47,1.0,2.0,91,0.01,,,0.08,108.000000,,2013-09-02 01:32:00,
2013-09-01 17:52:00,57.0,54.0,-100.00,NE,47,1.0,2.0,91,0.01,,,0.08,108.000000,,2013-09-02 01:52:00,
2013-09-01 18:22:00,56.0,54.0,-100.00,NNW,346,1.0,3.0,94,0.00,,,0.08,74.000000,,2013-09-02 02:22:00,
2013-09-01 18:33:00,56.0,54.0,-100.00,NNW,346,1.0,3.0,94,0.00,,,0.08,74.000000,,2013-09-02 02:33:00,
2013-09-01 18:42:00,56.0,54.0,-100.00,NNW,346,1.0,3.0,94,0.00,,,0.08,74.000000,,2013-09-02 02:42:00,
2013-09-01 18:52:00,56.0,54.0,-100.00,NNW,346,1.0,3.0,94,0.00,,,0.08,74.000000,,2013-09-02 02:52:00,
2013-09-01 19:22:00,55.0,53.0,-100.00,WNW,293,2.0,3.0,94,0.00,,,0.08,48.000000,,2013-09-02 03:22:00,
2013-09-01 19:34:00,55.0,53.0,-100.00,WNW,293,2.0,3.0,94,0.00,,,0.08,48.000000,,2013-09-02 03:34:00,
2013-09-01 19:56:00,55.0,53.0,-100.00,WNW,293,2.0,3.0,94,0.00,,,0.08,48.000000,,2013-09-02 03:56:00,
2013-09-01 20:24:00,53.0,52.0,-100.00,NNE,25,1.0,3.0,95,0.00,,,0.08,19.000000,,2013-09-02 04:24:00,
2013-09-01 20:35:00,53.0,52.0,-100.00,NNE,25,1.0,3.0,95,0.00,,,0.08,19.000000,,2013-09-02 04:35:00,
2013-09-01 20:44:00,53.0,52.0,-100.00,NNE,25,1.0,3.0,95,0.00,,,0.08,19.000000,,2013-09-02 04:44:00,
2013-09-01 20:54:00,53.0,52.0,-100.00,NNE,25,1.0,3.0,95,0.00,,,0.08,19.000000,,2013-09-02 04:54:00,
2013-09-01 21:23:00,52.0,51.0,-100.00,South,183,1.0,3.0,97,0.00,,,0.08,5.000000,,2013-09-02 05:23:00,
2013-09-01 21:34:00,52.0,51.0,-100.00,South,183,1.0,3.0,97,0.00,,,0.08,5.000000,,2013-09-02 05:34:00,
2013-09-01 21:52:00,52.0,51.0,-100.00,South,183,1.0,3.0,97,0.00,,,0.08,5.000000,,2013-09-02 05:52:00,
2013-09-01 22:22:00,52.0,51.0,-100.00,WNW,287,1.0,2.0,98,0.00,,,0.07,0.000000,,2013-09-02 06:22:00,
2013-09-01 22:32:00,52.0,51.0,-100.00,WNW,287,1.0,2.0,98,0.00,,,0.07,0.000000,,2013-09-02 06:32:00,
2013-09-01 22:43:00,52.0,51.0,-100.00,WNW,287,1.0,2.0,98,0.00,,,0.07,0.000000,,2013-09-02 06:43:00,
2013-09-01 22:52:00,52.0,51.0,-100.00,WNW,287,1.0,2.0,98,0.00,,,0.07,0.000000,,2013-09-02 06:52:00,
2013-09-01 23:21:00,52.0,52.0,-100.00,ENE,72,1.0,3.0,99,0.00,,,0.06,0.000000,,2013-09-02 07:21:00,
2013-09-01 23:33:00,52.0,52.0,-100.00,ENE,72,1.0,3.0,99,0.00,,,0.06,0.000000,,2013-09-02 07:33:00,
2013-09-01 23:52:00,52.0,52.0,-100.00,ENE,72,1.0,3.0,99,0.00,,,0.06,0.000000,,2013-09-02 07:52:00,